createdAt,value
2023-01-15T00:02:16.716Z,4.00
2023-01-15T00:04:43.997Z,4.00
2023-01-15T00:07:36.974Z,3.80
2023-01-15T00:10:05.290Z,3.70
2023-01-15T00:12:32.107Z,3.60
2023-01-15T00:14:58.895Z,3.60
2023-01-15T00:17:26.140Z,3.60
2023-01-15T00:19:52.949Z,3.60
2023-01-15T00:22:19.779Z,3.50
2023-01-15T00:25:05.545Z,3.50
2023-01-15T00:27:39.187Z,3.70
2023-01-15T00:30:09.351Z,3.60
2023-01-15T00:32:36.563Z,3.60
2023-01-15T00:35:04.117Z,3.50
2023-01-15T00:37:30.888Z,3.50
2023-01-15T00:39:57.752Z,3.60
2023-01-15T00:42:24.683Z,3.60
2023-01-15T00:44:51.571Z,3.80
2023-01-15T00:47:18.428Z,3.70
2023-01-15T00:49:45.836Z,3.80
2023-01-15T00:52:12.948Z,3.70
2023-01-15T00:54:39.802Z,3.60
2023-01-15T00:57:07.144Z,3.70
2023-01-15T00:59:33.962Z,3.80
2023-01-15T01:02:00.918Z,3.60
2023-01-15T01:04:27.797Z,3.70
2023-01-15T01:06:54.621Z,3.60
2023-01-15T01:09:21.418Z,3.60
2023-01-15T01:11:49.949Z,3.60
2023-01-15T01:14:17.205Z,3.60
2023-01-15T01:16:46.532Z,3.50
2023-01-15T01:19:19.638Z,3.60
2023-01-15T01:21:47.662Z,3.50
2023-01-15T01:24:20.838Z,3.40
2023-01-15T01:26:48.446Z,3.50
2023-01-15T01:29:21.124Z,3.60
2023-01-15T01:31:48.515Z,3.40
2023-01-15T01:34:15.538Z,3.30
2023-01-15T01:36:44.063Z,3.30
2023-01-15T01:39:17.735Z,3.30
2023-01-15T01:41:45.622Z,3.40
2023-01-15T01:44:35.085Z,3.30
2023-01-15T01:47:06.092Z,3.30
2023-01-15T01:49:35.333Z,3.40
2023-01-15T01:52:16.697Z,3.40
2023-01-15T01:54:46.590Z,3.30
2023-01-15T01:57:14.647Z,3.30
2023-01-15T01:59:41.530Z,3.30
2023-01-15T02:02:08.820Z,3.20
2023-01-15T02:04:37.025Z,3.20
2023-01-15T02:07:04.190Z,3.20
2023-01-15T02:09:31.783Z,3.20
2023-01-15T02:12:06.505Z,3.10
2023-01-15T02:14:41.774Z,3.10
2023-01-15T02:17:19.194Z,3.20
2023-01-15T02:20:25.713Z,3.30
2023-01-15T02:23:14.486Z,3.20
2023-01-15T02:26:05.978Z,3.40
2023-01-15T02:28:40.806Z,3.40
2023-01-15T02:31:22.192Z,3.40
2023-01-15T02:39:22.579Z,3.30
2023-01-15T02:41:52.305Z,3.30
2023-01-15T02:44:22.306Z,3.30
2023-01-15T02:46:50.155Z,3.40
2023-01-15T02:49:20.571Z,3.40
2023-01-15T02:51:58.718Z,3.40
2023-01-15T02:54:29.948Z,3.40
2023-01-15T02:57:00.434Z,3.40
2023-01-15T02:59:49.106Z,3.40
2023-01-15T03:02:27.929Z,3.50
2023-01-15T03:05:08.920Z,3.40
2023-01-15T03:07:38.611Z,3.30
2023-01-15T03:10:06.978Z,3.20
2023-01-15T03:13:03.468Z,3.10
2023-01-15T03:15:58.393Z,3.00
2023-01-15T03:18:28.570Z,2.90
2023-01-15T03:21:00.453Z,2.90
2023-01-15T03:23:30.402Z,2.90
2023-01-15T03:25:57.449Z,3.50
2023-01-15T03:28:31.658Z,2.60
2023-01-15T03:30:59.628Z,2.60
2023-01-15T03:33:28.150Z,2.60
2023-01-15T03:35:58.999Z,2.70
2023-01-15T03:38:29.535Z,2.60
2023-01-15T03:41:13.381Z,2.70
2023-01-15T03:47:03.630Z,2.60
2023-01-15T03:49:57.587Z,2.60
2023-01-15T03:52:45.701Z,2.70
2023-01-15T03:55:28.344Z,2.70
2023-01-15T03:58:05.630Z,2.70
2023-01-15T04:00:38.585Z,2.80
2023-01-15T04:03:09.023Z,2.80
2023-01-15T04:05:38.014Z,2.70
2023-01-15T04:08:05.907Z,2.70
2023-01-15T04:10:33.359Z,2.80
2023-01-15T04:13:00.284Z,2.90
2023-01-15T04:15:27.149Z,2.80
2023-01-15T04:17:53.989Z,2.90
2023-01-15T04:20:21.215Z,2.80
2023-01-15T04:22:48.084Z,2.80
2023-01-15T04:25:14.897Z,2.80
2023-01-15T04:27:41.780Z,2.80
2023-01-15T04:30:09.641Z,2.80
2023-01-15T04:32:36.512Z,2.80
2023-01-15T04:35:03.501Z,2.70
2023-01-15T04:37:30.338Z,2.70
2023-01-15T04:39:57.575Z,2.80
2023-01-15T04:42:43.129Z,2.70
2023-01-15T04:45:10.593Z,2.70
2023-01-15T04:47:37.401Z,2.70
2023-01-15T04:50:04.319Z,2.60
2023-01-15T04:52:31.107Z,2.60
2023-01-15T04:54:58.102Z,2.80
2023-01-15T04:57:24.874Z,2.60
2023-01-15T04:59:52.063Z,2.70
2023-01-15T05:02:19.031Z,2.80
2023-01-15T05:04:46.386Z,2.80
2023-01-15T05:07:13.305Z,2.50
2023-01-15T05:09:40.561Z,2.60
2023-01-15T05:12:09.563Z,2.70
2023-01-15T05:14:36.459Z,2.60
2023-01-15T05:17:03.382Z,2.60
2023-01-15T05:19:30.582Z,2.70
2023-01-15T05:21:57.813Z,2.70
2023-01-15T05:24:25.108Z,2.80
2023-01-15T05:26:51.966Z,2.80
2023-01-15T05:29:18.740Z,2.90
2023-01-15T05:31:46.066Z,2.90
2023-01-15T05:34:13.335Z,2.70
2023-01-15T05:36:40.297Z,2.70
2023-01-15T05:39:07.648Z,2.50
2023-01-15T05:41:49.596Z,2.70
2023-01-15T05:44:20.884Z,2.60
2023-01-15T05:46:48.820Z,2.50
2023-01-15T05:49:20.283Z,2.60
2023-01-15T05:51:47.632Z,2.40
2023-01-15T05:54:18.080Z,2.40
2023-01-15T05:56:45.864Z,3.00
2023-01-15T05:59:13.811Z,2.60
2023-01-15T06:01:40.967Z,2.50
2023-01-15T06:04:08.533Z,2.50
2023-01-15T06:06:36.288Z,2.30
2023-01-15T06:09:04.921Z,2.30
2023-01-15T06:11:32.264Z,2.30
2023-01-15T06:13:59.957Z,2.90
2023-01-15T06:16:27.075Z,2.20
2023-01-15T06:18:54.215Z,2.20
2023-01-15T06:21:21.188Z,2.80
2023-01-15T06:23:48.080Z,2.00
2023-01-15T06:26:18.366Z,2.50
2023-01-15T06:28:47.096Z,1.90
2023-01-15T06:31:16.754Z,1.80
2023-01-15T06:33:44.260Z,2.00
2023-01-15T06:36:17.454Z,2.10
2023-01-15T06:38:45.378Z,2.40
2023-01-15T06:41:39.928Z,2.40
2023-01-15T06:44:29.185Z,2.50
2023-01-15T06:47:15.120Z,2.50
2023-01-15T06:49:42.191Z,2.60
2023-01-15T06:52:09.126Z,2.70
2023-01-15T06:54:36.065Z,2.60
2023-01-15T06:57:03.422Z,2.70
2023-01-15T06:59:30.787Z,2.80
2023-01-15T07:02:00.833Z,2.80
2023-01-15T07:04:28.364Z,2.80
2023-01-15T07:06:55.322Z,2.90
2023-01-15T07:09:22.609Z,3.10
2023-01-15T07:11:49.784Z,3.30
2023-01-15T07:14:21.713Z,3.20
2023-01-15T07:16:52.680Z,3.20
2023-01-15T07:19:20.428Z,3.10
2023-01-15T07:21:47.805Z,3.30
2023-01-15T07:24:17.451Z,3.30
2023-01-15T07:26:45.463Z,3.50
2023-01-15T07:29:13.343Z,3.60
2023-01-15T07:31:40.906Z,3.70
2023-01-15T07:34:07.852Z,3.90
2023-01-15T07:36:34.790Z,4.00
2023-01-15T07:39:04.480Z,4.10
2023-01-15T07:41:49.810Z,4.30
2023-01-15T07:44:35.520Z,4.40
2023-01-15T07:47:21.974Z,4.40
2023-01-15T07:49:49.842Z,4.60
2023-01-15T07:52:19.523Z,4.60
2023-01-15T07:54:48.443Z,4.80
2023-01-15T07:57:19.111Z,4.90
2023-01-15T07:59:45.994Z,5.10
2023-01-15T08:02:13.314Z,3.40
2023-01-15T08:04:40.356Z,5.30
2023-01-15T08:07:08.331Z,5.50
2023-01-15T08:09:35.826Z,5.60
2023-01-15T08:12:23.964Z,5.80
2023-01-15T08:15:09.634Z,5.50
2023-01-15T08:17:37.671Z,6.40
2023-01-15T08:20:07.140Z,6.40
2023-01-15T08:22:34.039Z,6.40
2023-01-15T08:25:01.012Z,6.70
2023-01-15T08:27:29.064Z,6.90
2023-01-15T08:29:56.886Z,7.30
2023-01-15T08:32:25.193Z,7.60
2023-01-15T08:34:52.173Z,7.80
2023-01-15T08:37:19.046Z,8.00
2023-01-15T08:39:46.268Z,8.30
2023-01-15T08:42:13.544Z,8.40
2023-01-15T08:44:40.351Z,8.70
2023-01-15T08:47:07.614Z,9.00
2023-01-15T08:49:34.867Z,9.20
2023-01-15T08:52:02.121Z,9.40
2023-01-15T08:54:29.687Z,9.50
2023-01-15T08:56:56.636Z,9.80
2023-01-15T08:59:23.581Z,10.00
2023-01-15T09:01:50.520Z,10.20
2023-01-15T09:04:20.135Z,10.30
2023-01-15T09:09:34.465Z,10.20
2023-01-15T09:12:02.179Z,9.10
2023-01-15T09:14:57.861Z,10.40
2023-01-15T09:17:16.822Z,10.60
2023-01-15T09:19:43.640Z,10.90
2023-01-15T09:22:10.431Z,11.20
2023-01-15T09:24:37.471Z,11.50
2023-01-15T09:27:04.743Z,12.00
2023-01-15T09:29:31.587Z,12.40
2023-01-15T09:31:58.401Z,12.50
2023-01-15T09:34:25.450Z,12.70
2023-01-15T09:36:52.747Z,13.00
2023-01-15T09:39:19.959Z,13.40
2023-01-15T09:42:08.598Z,13.60
2023-01-15T09:44:50.699Z,13.90
2023-01-15T09:47:30.296Z,14.10
2023-01-15T09:50:21.521Z,14.30
2023-01-15T09:53:10.711Z,14.40
2023-01-15T09:55:46.146Z,14.50
2023-01-15T09:58:16.782Z,14.60
2023-01-15T10:00:51.985Z,14.80
2023-01-15T10:03:45.836Z,15.30
2023-01-15T10:06:26.447Z,15.70
2023-01-15T10:09:20.768Z,16.30
2023-01-15T10:12:21.181Z,16.60
2023-01-15T10:14:54.582Z,17.10
2023-01-15T10:17:27.268Z,17.50
2023-01-15T10:19:55.297Z,17.90
2023-01-15T10:22:48.656Z,18.40
2023-01-15T10:25:19.644Z,18.80
2023-01-15T10:27:51.842Z,19.30
2023-01-15T10:30:32.089Z,19.80
2023-01-15T10:33:12.395Z,20.30
2023-01-15T10:35:59.799Z,20.90
2023-01-15T10:38:35.133Z,21.50
2023-01-15T10:41:20.125Z,21.80
2023-01-15T10:44:22.228Z,22.10
2023-01-15T10:46:59.053Z,22.30
2023-01-15T10:49:30.970Z,22.80
2023-01-15T10:52:21.369Z,23.60
2023-01-15T10:54:57.605Z,24.30
2023-01-15T10:57:44.233Z,24.90
2023-01-15T11:00:12.268Z,25.20
2023-01-15T11:03:08.336Z,25.50
2023-01-15T11:05:36.508Z,26.10
2023-01-15T11:08:39.367Z,26.70
2023-01-15T11:10:53.617Z,27.30
2023-01-15T11:13:44.389Z,27.70
2023-01-15T11:16:34.724Z,27.80
2023-01-15T11:19:25.781Z,28.10
2023-01-15T11:21:54.159Z,28.40
2023-01-15T11:24:21.141Z,28.50
2023-01-15T11:26:51.498Z,28.50
2023-01-15T11:29:37.484Z,28.90
2023-01-15T11:32:04.514Z,29.40
2023-01-15T11:34:31.411Z,29.50
2023-01-15T11:37:03.330Z,30.00
2023-01-15T11:39:31.518Z,30.30
2023-01-15T11:42:19.075Z,30.40
2023-01-15T11:45:12.808Z,30.30
2023-01-15T11:47:58.321Z,30.00
2023-01-15T11:50:43.768Z,30.30
2023-01-15T11:53:19.898Z,30.00
2023-01-15T11:56:02.394Z,30.20
2023-01-15T11:58:33.968Z,30.10
2023-01-15T12:01:02.144Z,27.70
2023-01-15T12:03:31.913Z,28.40
2023-01-15T12:06:05.722Z,28.20
2023-01-15T12:08:42.160Z,27.80
2023-01-15T12:11:53.433Z,27.30
2023-01-15T12:14:44.946Z,26.70
2023-01-15T12:17:17.859Z,25.80
2023-01-15T12:19:51.017Z,25.20
2023-01-15T12:22:29.952Z,25.20
2023-01-15T12:25:38.790Z,25.70
2023-01-15T12:28:24.569Z,25.60
2023-01-15T12:31:33.274Z,25.40
2023-01-15T12:34:20.609Z,25.00
2023-01-15T12:36:58.312Z,24.30
2023-01-15T12:39:46.011Z,23.30
2023-01-15T12:42:37.537Z,23.10
2023-01-15T12:45:11.611Z,23.00
2023-01-15T12:48:08.235Z,22.80
2023-01-15T12:50:45.348Z,23.00
2023-01-15T12:53:43.493Z,22.50
2023-01-15T12:56:26.115Z,22.60
2023-01-15T12:59:08.168Z,22.80
2023-01-15T13:01:56.679Z,22.50
2023-01-15T13:04:37.799Z,22.00
2023-01-15T13:07:29.465Z,21.50
2023-01-15T13:10:08.646Z,21.40
2023-01-15T13:12:35.654Z,21.10
2023-01-15T13:15:04.385Z,21.00
2023-01-15T13:17:37.195Z,20.90
2023-01-15T13:20:15.733Z,20.80
2023-01-15T13:23:04.827Z,21.30
2023-01-15T13:26:01.450Z,21.70
2023-01-15T13:28:52.344Z,21.60
2023-01-15T13:31:25.088Z,21.20
2023-01-15T13:33:55.914Z,21.80
2023-01-15T13:36:33.019Z,22.00
2023-01-15T13:39:03.333Z,21.80
2023-01-15T13:44:24.250Z,20.30
2023-01-15T13:47:12.993Z,19.10
2023-01-15T13:49:47.260Z,18.20
2023-01-15T13:52:30.315Z,17.50
2023-01-15T13:55:20.680Z,17.10
2023-01-15T14:21:19.159Z,14.90
2023-01-15T14:24:16.236Z,14.70
2023-01-15T14:26:54.892Z,14.60
2023-01-15T14:29:40.814Z,14.40
2023-01-15T14:32:35.475Z,14.40
2023-01-15T14:35:03.449Z,14.30
2023-01-15T14:37:49.589Z,14.10
2023-01-15T14:40:36.020Z,14.10
2023-01-15T14:43:13.962Z,14.00
2023-01-15T14:45:47.876Z,14.00
2023-01-15T14:54:19.846Z,13.80
2023-01-15T15:18:06.277Z,13.40
2023-01-15T15:21:03.014Z,13.50
2023-01-15T15:23:48.063Z,13.50
2023-01-15T15:26:28.547Z,13.40
2023-01-15T15:29:17.306Z,13.40
2023-01-15T15:32:00.149Z,13.30
2023-01-15T15:37:25.231Z,13.10
2023-01-15T15:40:14.933Z,13.10
2023-01-15T15:43:17.301Z,13.10
2023-01-15T15:46:11.410Z,13.10
2023-01-15T15:48:42.120Z,13.10
2023-01-15T15:51:42.528Z,13.10
2023-01-15T15:54:29.711Z,13.10
2023-01-15T16:13:01.213Z,13.10
2023-01-15T16:15:31.018Z,13.10
2023-01-15T16:17:59.399Z,13.00
2023-01-15T16:20:26.963Z,12.90
2023-01-15T16:22:56.042Z,13.00
2023-01-15T16:25:38.757Z,12.90
2023-01-15T16:28:05.815Z,12.90
2023-01-15T16:30:33.684Z,12.90
2023-01-15T16:33:06.225Z,12.90
2023-01-15T16:35:37.411Z,12.80
2023-01-15T16:38:07.392Z,12.80
2023-01-15T16:40:39.837Z,12.80
2023-01-15T16:43:11.421Z,12.80
2023-01-15T16:46:03.786Z,12.80
2023-01-15T16:48:38.561Z,12.80
2023-01-15T16:51:36.349Z,12.90
2023-01-15T16:54:05.939Z,12.90
2023-01-15T16:56:37.412Z,12.90
2023-01-15T16:59:14.016Z,13.00
2023-01-15T17:01:48.117Z,12.90
2023-01-15T17:04:27.507Z,12.90
2023-01-15T17:07:02.836Z,12.90
2023-01-15T17:09:33.805Z,12.80
2023-01-15T17:12:06.482Z,12.90
2023-01-15T17:14:33.258Z,12.80
2023-01-15T17:17:27.120Z,13.00
2023-01-15T17:19:56.188Z,12.90
2023-01-15T17:22:31.525Z,12.90
2023-01-15T17:25:00.892Z,12.90
2023-01-15T17:27:29.831Z,12.80
2023-01-15T17:29:56.840Z,12.80
2023-01-15T17:32:31.809Z,12.80
2023-01-15T17:34:58.721Z,12.70
2023-01-15T17:37:25.519Z,12.70
2023-01-15T17:39:52.270Z,12.70
2023-01-15T17:42:20.231Z,12.70
2023-01-15T17:44:47.509Z,12.70
2023-01-15T17:47:14.519Z,12.80
2023-01-15T17:49:41.349Z,12.70
2023-01-15T17:52:16.630Z,12.70
2023-01-15T17:55:02.242Z,12.70
2023-01-15T17:57:47.982Z,12.60
2023-01-15T18:00:33.697Z,12.60
2023-01-15T18:03:19.362Z,12.50
2023-01-15T18:05:51.094Z,12.50
2023-01-15T18:08:18.867Z,12.40
2023-01-15T18:10:45.807Z,12.40
2023-01-15T18:13:13.095Z,12.40
2023-01-15T18:15:40.964Z,12.40
2023-01-15T18:18:07.752Z,12.50
2023-01-15T18:20:34.690Z,12.50
2023-01-15T18:23:01.933Z,12.50
2023-01-15T18:25:28.753Z,12.40
2023-01-15T18:27:55.528Z,12.40
2023-01-15T18:30:22.383Z,12.40
2023-01-15T18:32:49.405Z,12.30
2023-01-15T18:35:17.308Z,12.30
2023-01-15T18:37:44.722Z,12.30
2023-01-15T18:40:12.163Z,12.30
2023-01-15T18:42:58.081Z,12.30
2023-01-15T18:45:43.497Z,12.30
2023-01-15T18:48:10.533Z,12.30
2023-01-15T18:50:37.543Z,12.20
2023-01-15T18:53:04.773Z,12.20
2023-01-15T18:55:31.691Z,12.20
2023-01-15T18:57:58.779Z,12.30
2023-01-15T19:00:26.047Z,12.40
2023-01-15T19:02:53.046Z,12.30
2023-01-15T19:05:20.375Z,12.20
2023-01-15T19:07:47.611Z,12.20
2023-01-15T19:10:16.526Z,12.10
2023-01-15T19:12:44.816Z,12.00
2023-01-15T19:18:37.480Z,12.00
2023-01-15T19:21:10.265Z,12.00
2023-01-15T19:29:08.051Z,12.00
2023-01-15T19:34:33.265Z,11.90
2023-01-15T19:36:59.763Z,11.90
2023-01-15T19:39:28.128Z,10.40
2023-01-15T19:42:14.923Z,12.00
2023-01-15T19:45:01.194Z,10.60
2023-01-15T19:47:53.767Z,13.10
2023-01-15T19:50:40.493Z,10.70
2023-01-15T19:53:09.446Z,9.90
2023-01-15T19:55:40.827Z,13.50
2023-01-15T20:01:20.342Z,12.00
2023-01-15T20:06:23.110Z,11.90
2023-01-15T20:08:50.149Z,11.80
2023-01-15T20:11:16.945Z,11.90
2023-01-15T20:13:51.693Z,12.00
2023-01-15T20:16:22.354Z,11.90
2023-01-15T20:18:50.459Z,11.90
2023-01-15T20:21:18.396Z,11.90
2023-01-15T20:23:45.332Z,11.90
2023-01-15T20:26:14.824Z,11.90
2023-01-15T20:28:42.783Z,11.90
2023-01-15T20:31:18.287Z,11.90
2023-01-15T20:33:46.136Z,11.90
2023-01-15T20:41:52.352Z,11.80
2023-01-15T20:44:38.036Z,11.80
2023-01-15T20:47:25.024Z,11.80
2023-01-15T20:49:52.276Z,11.80
2023-01-15T20:52:20.000Z,10.80
2023-01-15T20:54:47.462Z,10.40
2023-01-15T21:02:45.823Z,11.80
2023-01-15T21:05:13.438Z,10.50
2023-01-15T21:07:40.687Z,11.90
2023-01-15T21:12:48.685Z,11.80
2023-01-15T21:15:15.547Z,11.90
2023-01-15T21:17:42.394Z,11.90
2023-01-15T21:20:12.251Z,11.90
2023-01-15T21:22:39.400Z,11.90
2023-01-15T21:25:09.755Z,11.90
2023-01-15T21:27:37.700Z,11.90
2023-01-15T21:35:39.558Z,11.90
2023-01-15T21:38:10.547Z,10.60
2023-01-15T21:40:38.017Z,10.60
2023-01-15T21:43:24.537Z,11.90
2023-01-15T21:48:27.212Z,12.10
2023-01-15T21:50:54.088Z,10.90
2023-01-15T21:53:20.930Z,12.10
2023-01-15T21:55:52.177Z,12.10
2023-01-15T21:58:19.023Z,12.00
2023-01-15T22:00:49.331Z,12.10
2023-01-15T22:03:17.982Z,12.10
2023-01-15T22:05:45.549Z,12.10
2023-01-15T22:08:12.763Z,12.10
2023-01-15T22:10:39.585Z,12.10
2023-01-15T22:13:06.451Z,12.20
2023-01-15T22:15:33.327Z,12.30
2023-01-15T22:18:00.645Z,12.30
2023-01-15T22:20:27.909Z,12.40
2023-01-15T22:22:54.680Z,12.30
2023-01-15T22:25:21.647Z,12.30
2023-01-15T22:27:48.475Z,12.20
2023-01-15T22:30:16.659Z,12.20
2023-01-15T22:32:43.675Z,12.30
2023-01-15T22:35:10.736Z,12.40
2023-01-15T22:37:37.563Z,12.40
2023-01-15T22:40:05.309Z,12.30
2023-01-15T22:42:33.071Z,12.30
2023-01-15T22:45:00.909Z,12.40
2023-01-15T22:47:29.346Z,12.40
2023-01-15T22:49:57.099Z,12.50
2023-01-15T22:52:25.869Z,12.40
2023-01-15T22:54:53.737Z,12.40
2023-01-15T22:57:20.723Z,12.30
2023-01-15T22:59:47.624Z,12.30
2023-01-15T23:02:14.614Z,12.30
2023-01-15T23:04:42.049Z,12.20
2023-01-15T23:07:09.796Z,12.20
2023-01-15T23:09:36.728Z,12.10
2023-01-15T23:12:04.151Z,12.10
2023-01-15T23:14:31.604Z,12.00
2023-01-15T23:16:58.498Z,11.90
2023-01-15T23:19:28.012Z,12.00
2023-01-15T23:21:55.671Z,12.00
2023-01-15T23:24:23.066Z,11.90
2023-01-15T23:26:49.891Z,11.80
2023-01-15T23:29:17.128Z,11.70
2023-01-15T23:31:43.977Z,11.70
2023-01-15T23:34:11.365Z,11.60
2023-01-15T23:36:38.532Z,11.50
2023-01-15T23:39:05.798Z,11.40
2023-01-15T23:41:55.577Z,11.40
2023-01-15T23:44:41.491Z,11.50
2023-01-15T23:47:08.592Z,11.50
2023-01-15T23:49:35.947Z,11.50
2023-01-15T23:52:03.289Z,11.50
2023-01-15T23:54:31.472Z,11.60
2023-01-15T23:57:00.274Z,11.60
2023-01-15T23:59:28.268Z,11.40
